sensor_id;sensor_type;location;lat;lon;timestamp;temperature;humidity
26821;DHT22;37186;51.394;5.454;2024-01-10T00:00:37;-0.40;73.00
26821;DHT22;37186;51.394;5.454;2024-01-10T00:03:38;-0.40;72.80
26821;DHT22;37186;51.394;5.454;2024-01-10T00:06:38;-0.40;73.00
26821;DHT22;37186;51.394;5.454;2024-01-10T00:09:39;-0.40;72.90
26821;DHT22;37186;51.394;5.454;2024-01-10T00:12:39;-0.50;72.90
26821;DHT22;37186;51.394;5.454;2024-01-10T00:15:40;-0.50;72.80
26821;DHT22;37186;51.394;5.454;2024-01-10T00:18:40;-0.50;72.90
26821;DHT22;37186;51.394;5.454;2024-01-10T00:21:41;-0.50;72.90
26821;DHT22;37186;51.394;5.454;2024-01-10T00:24:41;-0.50;72.80
26821;DHT22;37186;51.394;5.454;2024-01-10T00:27:42;-0.60;72.70
26821;DHT22;37186;51.394;5.454;2024-01-10T00:30:42;-0.50;72.90
26821;DHT22;37186;51.394;5.454;2024-01-10T00:33:43;-0.60;72.90
26821;DHT22;37186;51.394;5.454;2024-01-10T00:36:44;-0.60;73.00
26821;DHT22;37186;51.394;5.454;2024-01-10T00:39:44;-0.60;72.80
26821;DHT22;37186;51.394;5.454;2024-01-10T00:42:45;-0.60;72.90
26821;DHT22;37186;51.394;5.454;2024-01-10T00:45:45;-0.60;72.90
26821;DHT22;37186;51.394;5.454;2024-01-10T00:48:46;-0.60;72.90
26821;DHT22;37186;51.394;5.454;2024-01-10T00:51:46;-0.60;72.90
26821;DHT22;37186;51.394;5.454;2024-01-10T00:54:47;-0.70;72.90
26821;DHT22;37186;51.394;5.454;2024-01-10T00:57:47;-0.70;72.70
26821;DHT22;37186;51.394;5.454;2024-01-10T01:00:48;-0.70;72.80
26821;DHT22;37186;51.394;5.454;2024-01-10T01:03:48;-0.70;72.80
26821;DHT22;37186;51.394;5.454;2024-01-10T01:06:49;-0.70;72.90
26821;DHT22;37186;51.394;5.454;2024-01-10T01:09:49;-0.70;72.80
26821;DHT22;37186;51.394;5.454;2024-01-10T01:12:50;-0.80;72.80
26821;DHT22;37186;51.394;5.454;2024-01-10T01:15:50;-0.80;73.50
26821;DHT22;37186;51.394;5.454;2024-01-10T01:18:51;-0.80;72.80
26821;DHT22;37186;51.394;5.454;2024-01-10T01:21:51;-0.80;72.80
26821;DHT22;37186;51.394;5.454;2024-01-10T01:24:52;-0.80;72.80
26821;DHT22;37186;51.394;5.454;2024-01-10T01:27:52;-0.90;72.70
26821;DHT22;37186;51.394;5.454;2024-01-10T01:30:53;-0.90;72.90
26821;DHT22;37186;51.394;5.454;2024-01-10T01:33:53;-0.90;72.80
26821;DHT22;37186;51.394;5.454;2024-01-10T01:36:54;-0.90;72.80
26821;DHT22;37186;51.394;5.454;2024-01-10T01:39:54;-0.90;72.80
26821;DHT22;37186;51.394;5.454;2024-01-10T01:42:55;-0.90;72.80
26821;DHT22;37186;51.394;5.454;2024-01-10T01:45:56;-0.90;72.80
26821;DHT22;37186;51.394;5.454;2024-01-10T01:48:57;-0.90;73.00
26821;DHT22;37186;51.394;5.454;2024-01-10T01:51:57;-0.90;72.80
26821;DHT22;37186;51.394;5.454;2024-01-10T01:54:58;-1.00;72.80
26821;DHT22;37186;51.394;5.454;2024-01-10T01:57:59;-1.00;72.80
26821;DHT22;37186;51.394;5.454;2024-01-10T02:01:00;-1.00;72.80
26821;DHT22;37186;51.394;5.454;2024-01-10T02:04:01;-1.00;73.00
26821;DHT22;37186;51.394;5.454;2024-01-10T02:07:03;-1.00;72.90
26821;DHT22;37186;51.394;5.454;2024-01-10T02:10:04;-1.00;73.00
26821;DHT22;37186;51.394;5.454;2024-01-10T02:13:05;-1.00;72.90
26821;DHT22;37186;51.394;5.454;2024-01-10T02:16:06;-1.00;73.00
26821;DHT22;37186;51.394;5.454;2024-01-10T02:19:22;-1.00;73.00
26821;DHT22;37186;51.394;5.454;2024-01-10T02:22:23;-1.00;73.00
26821;DHT22;37186;51.394;5.454;2024-01-10T02:25:24;-1.00;73.00
26821;DHT22;37186;51.394;5.454;2024-01-10T02:28:24;-1.00;73.00
26821;DHT22;37186;51.394;5.454;2024-01-10T02:31:26;-1.00;73.00
26821;DHT22;37186;51.394;5.454;2024-01-10T02:34:29;-1.10;73.00
26821;DHT22;37186;51.394;5.454;2024-01-10T02:37:30;-1.10;73.00
26821;DHT22;37186;51.394;5.454;2024-01-10T02:40:30;-1.00;73.60
26821;DHT22;37186;51.394;5.454;2024-01-10T02:43:31;-1.10;73.80
26821;DHT22;37186;51.394;5.454;2024-01-10T02:46:31;-1.10;73.00
26821;DHT22;37186;51.394;5.454;2024-01-10T02:49:32;-1.10;73.00
26821;DHT22;37186;51.394;5.454;2024-01-10T02:52:33;-1.10;73.10
26821;DHT22;37186;51.394;5.454;2024-01-10T02:55:34;-1.10;73.00
26821;DHT22;37186;51.394;5.454;2024-01-10T02:58:34;-1.10;72.90
26821;DHT22;37186;51.394;5.454;2024-01-10T03:01:35;-1.10;73.00
26821;DHT22;37186;51.394;5.454;2024-01-10T03:04:35;-1.10;73.10
26821;DHT22;37186;51.394;5.454;2024-01-10T03:07:36;-1.10;73.00
26821;DHT22;37186;51.394;5.454;2024-01-10T03:10:36;-1.20;73.60
26821;DHT22;37186;51.394;5.454;2024-01-10T03:13:37;-1.10;73.00
26821;DHT22;37186;51.394;5.454;2024-01-10T03:16:39;-1.20;73.00
26821;DHT22;37186;51.394;5.454;2024-01-10T03:19:39;-1.20;73.00
26821;DHT22;37186;51.394;5.454;2024-01-10T03:22:43;-1.20;73.00
26821;DHT22;37186;51.394;5.454;2024-01-10T03:25:44;-1.20;73.10
26821;DHT22;37186;51.394;5.454;2024-01-10T03:28:45;-1.20;73.20
26821;DHT22;37186;51.394;5.454;2024-01-10T03:31:45;-1.20;73.00
26821;DHT22;37186;51.394;5.454;2024-01-10T03:34:46;-1.20;72.90
26821;DHT22;37186;51.394;5.454;2024-01-10T03:37:46;-1.20;73.00
26821;DHT22;37186;51.394;5.454;2024-01-10T03:40:47;-1.20;72.90
26821;DHT22;37186;51.394;5.454;2024-01-10T03:43:48;-1.30;72.90
26821;DHT22;37186;51.394;5.454;2024-01-10T03:46:48;-1.30;72.90
26821;DHT22;37186;51.394;5.454;2024-01-10T03:49:49;-1.30;73.00
26821;DHT22;37186;51.394;5.454;2024-01-10T03:52:49;-1.20;73.00
26821;DHT22;37186;51.394;5.454;2024-01-10T03:55:50;-1.30;73.10
26821;DHT22;37186;51.394;5.454;2024-01-10T03:58:50;-1.30;73.10
26821;DHT22;37186;51.394;5.454;2024-01-10T04:01:51;-1.30;73.10
26821;DHT22;37186;51.394;5.454;2024-01-10T04:04:52;-1.30;73.10
26821;DHT22;37186;51.394;5.454;2024-01-10T04:07:52;-1.30;73.10
26821;DHT22;37186;51.394;5.454;2024-01-10T04:10:53;-1.30;72.90
26821;DHT22;37186;51.394;5.454;2024-01-10T04:13:53;-1.30;73.10
26821;DHT22;37186;51.394;5.454;2024-01-10T04:16:54;-1.30;73.10
26821;DHT22;37186;51.394;5.454;2024-01-10T04:19:55;-1.30;73.20
26821;DHT22;37186;51.394;5.454;2024-01-10T04:22:55;-1.30;73.20
26821;DHT22;37186;51.394;5.454;2024-01-10T04:25:56;-1.30;73.20
26821;DHT22;37186;51.394;5.454;2024-01-10T04:28:57;-1.30;73.20
26821;DHT22;37186;51.394;5.454;2024-01-10T04:31:57;-1.30;73.20
26821;DHT22;37186;51.394;5.454;2024-01-10T04:34:58;-1.30;73.10
26821;DHT22;37186;51.394;5.454;2024-01-10T04:37:58;-1.20;73.20
26821;DHT22;37186;51.394;5.454;2024-01-10T04:40:59;-1.30;73.20
26821;DHT22;37186;51.394;5.454;2024-01-10T04:43:59;-1.30;73.20
26821;DHT22;37186;51.394;5.454;2024-01-10T04:47:00;-1.30;73.20
26821;DHT22;37186;51.394;5.454;2024-01-10T04:50:01;-1.30;73.20
26821;DHT22;37186;51.394;5.454;2024-01-10T04:53:01;-1.30;73.20
26821;DHT22;37186;51.394;5.454;2024-01-10T04:56:02;-1.30;73.90
26821;DHT22;37186;51.394;5.454;2024-01-10T04:59:03;-1.30;73.20
26821;DHT22;37186;51.394;5.454;2024-01-10T05:02:03;-1.30;73.10
26821;DHT22;37186;51.394;5.454;2024-01-10T05:05:04;-1.30;73.10
26821;DHT22;37186;51.394;5.454;2024-01-10T05:08:05;-1.30;73.20
26821;DHT22;37186;51.394;5.454;2024-01-10T05:11:06;-1.30;73.20
26821;DHT22;37186;51.394;5.454;2024-01-10T05:14:07;-1.30;73.10
26821;DHT22;37186;51.394;5.454;2024-01-10T05:17:07;-1.30;73.20
26821;DHT22;37186;51.394;5.454;2024-01-10T05:20:08;-1.40;73.10
26821;DHT22;37186;51.394;5.454;2024-01-10T05:23:09;-1.40;73.10
26821;DHT22;37186;51.394;5.454;2024-01-10T05:26:09;-1.40;73.20
26821;DHT22;37186;51.394;5.454;2024-01-10T05:29:10;-1.40;73.10
26821;DHT22;37186;51.394;5.454;2024-01-10T05:32:10;-1.40;73.20
26821;DHT22;37186;51.394;5.454;2024-01-10T05:35:11;-1.40;73.20
26821;DHT22;37186;51.394;5.454;2024-01-10T05:38:12;-1.40;73.10
26821;DHT22;37186;51.394;5.454;2024-01-10T05:41:12;-1.40;73.20
26821;DHT22;37186;51.394;5.454;2024-01-10T05:44:14;-1.40;73.20
26821;DHT22;37186;51.394;5.454;2024-01-10T05:47:15;-1.50;73.10
26821;DHT22;37186;51.394;5.454;2024-01-10T05:50:15;-1.50;73.10
26821;DHT22;37186;51.394;5.454;2024-01-10T05:53:17;-1.50;73.10
26821;DHT22;37186;51.394;5.454;2024-01-10T05:56:17;-1.50;73.10
26821;DHT22;37186;51.394;5.454;2024-01-10T05:59:18;-1.50;73.10
26821;DHT22;37186;51.394;5.454;2024-01-10T06:02:19;-1.50;73.20
26821;DHT22;37186;51.394;5.454;2024-01-10T06:05:19;-1.50;73.20
26821;DHT22;37186;51.394;5.454;2024-01-10T06:08:20;-1.50;73.20
26821;DHT22;37186;51.394;5.454;2024-01-10T06:11:23;-1.60;73.20
26821;DHT22;37186;51.394;5.454;2024-01-10T06:14:23;-1.50;73.30
26821;DHT22;37186;51.394;5.454;2024-01-10T06:17:24;-1.50;73.10
26821;DHT22;37186;51.394;5.454;2024-01-10T06:20:24;-1.60;73.10
26821;DHT22;37186;51.394;5.454;2024-01-10T06:23:25;-1.60;73.00
26821;DHT22;37186;51.394;5.454;2024-01-10T06:26:25;-1.60;73.20
26821;DHT22;37186;51.394;5.454;2024-01-10T06:29:26;-1.60;73.20
26821;DHT22;37186;51.394;5.454;2024-01-10T06:32:26;-1.60;73.10
26821;DHT22;37186;51.394;5.454;2024-01-10T06:35:27;-1.60;73.20
26821;DHT22;37186;51.394;5.454;2024-01-10T06:38:28;-1.60;73.10
26821;DHT22;37186;51.394;5.454;2024-01-10T06:41:28;-1.60;73.90
26821;DHT22;37186;51.394;5.454;2024-01-10T06:44:30;-1.60;72.90
26821;DHT22;37186;51.394;5.454;2024-01-10T06:47:30;-1.60;73.00
26821;DHT22;37186;51.394;5.454;2024-01-10T06:50:31;-1.60;73.20
26821;DHT22;37186;51.394;5.454;2024-01-10T06:53:31;-1.60;73.30
26821;DHT22;37186;51.394;5.454;2024-01-10T06:56:32;-1.70;73.00
26821;DHT22;37186;51.394;5.454;2024-01-10T06:59:33;-1.60;73.10
26821;DHT22;37186;51.394;5.454;2024-01-10T07:02:33;-1.70;73.20
26821;DHT22;37186;51.394;5.454;2024-01-10T07:05:36;-1.60;73.20
26821;DHT22;37186;51.394;5.454;2024-01-10T07:08:36;-1.70;73.00
26821;DHT22;37186;51.394;5.454;2024-01-10T07:11:37;-1.70;73.30
26821;DHT22;37186;51.394;5.454;2024-01-10T07:14:37;-1.70;73.30
26821;DHT22;37186;51.394;5.454;2024-01-10T07:17:38;-1.70;73.20
26821;DHT22;37186;51.394;5.454;2024-01-10T07:20:39;-1.70;73.30
26821;DHT22;37186;51.394;5.454;2024-01-10T07:23:40;-1.70;73.30
26821;DHT22;37186;51.394;5.454;2024-01-10T07:26:41;-1.70;73.40
26821;DHT22;37186;51.394;5.454;2024-01-10T07:29:41;-1.70;73.30
26821;DHT22;37186;51.394;5.454;2024-01-10T07:32:43;-1.60;73.40
26821;DHT22;37186;51.394;5.454;2024-01-10T07:35:44;-1.70;73.10
26821;DHT22;37186;51.394;5.454;2024-01-10T07:38:44;-1.70;73.30
26821;DHT22;37186;51.394;5.454;2024-01-10T07:41:45;-1.70;73.30
26821;DHT22;37186;51.394;5.454;2024-01-10T07:44:45;-1.70;73.30
26821;DHT22;37186;51.394;5.454;2024-01-10T07:47:46;-1.70;73.30
26821;DHT22;37186;51.394;5.454;2024-01-10T07:50:46;-1.70;73.30
26821;DHT22;37186;51.394;5.454;2024-01-10T07:53:47;-1.70;73.30
26821;DHT22;37186;51.394;5.454;2024-01-10T07:56:48;-1.70;73.40
26821;DHT22;37186;51.394;5.454;2024-01-10T07:59:49;-1.70;73.30
26821;DHT22;37186;51.394;5.454;2024-01-10T08:02:49;-1.70;73.20
26821;DHT22;37186;51.394;5.454;2024-01-10T08:05:50;-1.70;73.20
26821;DHT22;37186;51.394;5.454;2024-01-10T08:08:51;-1.70;73.30
26821;DHT22;37186;51.394;5.454;2024-01-10T08:11:51;-1.60;73.40
26821;DHT22;37186;51.394;5.454;2024-01-10T08:14:52;-1.70;73.30
26821;DHT22;37186;51.394;5.454;2024-01-10T08:17:52;-1.60;73.40
26821;DHT22;37186;51.394;5.454;2024-01-10T08:20:53;-1.60;73.40
26821;DHT22;37186;51.394;5.454;2024-01-10T08:23:55;-1.60;73.40
26821;DHT22;37186;51.394;5.454;2024-01-10T08:26:56;-1.60;73.40
26821;DHT22;37186;51.394;5.454;2024-01-10T08:29:56;-1.60;73.50
26821;DHT22;37186;51.394;5.454;2024-01-10T08:32:57;-1.60;73.40
26821;DHT22;37186;51.394;5.454;2024-01-10T08:35:57;-1.60;73.40
26821;DHT22;37186;51.394;5.454;2024-01-10T08:38:59;-1.50;73.50
26821;DHT22;37186;51.394;5.454;2024-01-10T08:42:01;-1.60;73.50
26821;DHT22;37186;51.394;5.454;2024-01-10T08:45:01;-1.50;73.60
26821;DHT22;37186;51.394;5.454;2024-01-10T08:48:02;-1.50;73.60
26821;DHT22;37186;51.394;5.454;2024-01-10T08:51:03;-1.50;73.60
26821;DHT22;37186;51.394;5.454;2024-01-10T08:54:04;-1.50;73.60
26821;DHT22;37186;51.394;5.454;2024-01-10T08:57:05;-1.50;73.60
26821;DHT22;37186;51.394;5.454;2024-01-10T09:00:06;-1.50;73.50
26821;DHT22;37186;51.394;5.454;2024-01-10T09:03:07;-1.40;73.60
26821;DHT22;37186;51.394;5.454;2024-01-10T09:06:07;-1.40;73.60
26821;DHT22;37186;51.394;5.454;2024-01-10T09:09:08;-1.40;73.60
26821;DHT22;37186;51.394;5.454;2024-01-10T09:12:08;-1.40;73.60
26821;DHT22;37186;51.394;5.454;2024-01-10T09:15:09;-1.40;73.50
26821;DHT22;37186;51.394;5.454;2024-01-10T09:18:13;-1.40;73.60
26821;DHT22;37186;51.394;5.454;2024-01-10T09:21:14;-1.30;73.70
26821;DHT22;37186;51.394;5.454;2024-01-10T09:24:14;-1.30;73.70
26821;DHT22;37186;51.394;5.454;2024-01-10T09:27:15;-1.30;73.60
26821;DHT22;37186;51.394;5.454;2024-01-10T09:30:15;-1.30;73.80
26821;DHT22;37186;51.394;5.454;2024-01-10T09:33:18;-1.30;73.80
26821;DHT22;37186;51.394;5.454;2024-01-10T09:36:19;-1.20;73.90
26821;DHT22;37186;51.394;5.454;2024-01-10T09:39:19;-1.20;73.80
26821;DHT22;37186;51.394;5.454;2024-01-10T09:42:20;-1.10;73.80
26821;DHT22;37186;51.394;5.454;2024-01-10T09:45:35;-1.20;73.80
26821;DHT22;37186;51.394;5.454;2024-01-10T09:48:35;-1.20;73.90
26821;DHT22;37186;51.394;5.454;2024-01-10T09:51:36;-1.10;74.00
26821;DHT22;37186;51.394;5.454;2024-01-10T09:54:38;-1.10;74.00
26821;DHT22;37186;51.394;5.454;2024-01-10T09:57:40;-1.10;74.00
26821;DHT22;37186;51.394;5.454;2024-01-10T10:00:41;-1.00;74.00
26821;DHT22;37186;51.394;5.454;2024-01-10T10:03:45;-1.00;74.10
26821;DHT22;37186;51.394;5.454;2024-01-10T10:06:46;-0.90;74.10
26821;DHT22;37186;51.394;5.454;2024-01-10T10:09:46;-0.90;74.10
26821;DHT22;37186;51.394;5.454;2024-01-10T10:12:49;-0.90;74.10
26821;DHT22;37186;51.394;5.454;2024-01-10T10:16:02;-0.90;74.20
26821;DHT22;37186;51.394;5.454;2024-01-10T10:19:03;-0.80;74.20
26821;DHT22;37186;51.394;5.454;2024-01-10T10:22:10;-0.80;74.20
26821;DHT22;37186;51.394;5.454;2024-01-10T10:25:16;-0.80;74.10
26821;DHT22;37186;51.394;5.454;2024-01-10T10:28:16;-0.70;74.20
26821;DHT22;37186;51.394;5.454;2024-01-10T10:31:18;-0.70;74.30
26821;DHT22;37186;51.394;5.454;2024-01-10T10:34:21;-0.60;74.30
26821;DHT22;37186;51.394;5.454;2024-01-10T10:37:22;-0.60;74.30
26821;DHT22;37186;51.394;5.454;2024-01-10T10:40:23;-0.50;74.30
26821;DHT22;37186;51.394;5.454;2024-01-10T10:43:24;-0.50;74.40
26821;DHT22;37186;51.394;5.454;2024-01-10T10:46:27;-0.50;74.30
26821;DHT22;37186;51.394;5.454;2024-01-10T10:49:29;-0.50;74.40
26821;DHT22;37186;51.394;5.454;2024-01-10T10:52:32;-0.40;74.40
26821;DHT22;37186;51.394;5.454;2024-01-10T10:55:34;-0.40;74.40
26821;DHT22;37186;51.394;5.454;2024-01-10T10:58:41;-0.30;74.40
26821;DHT22;37186;51.394;5.454;2024-01-10T11:01:42;-0.30;74.40
26821;DHT22;37186;51.394;5.454;2024-01-10T11:04:44;-0.30;74.40
26821;DHT22;37186;51.394;5.454;2024-01-10T11:07:45;-0.20;74.50
26821;DHT22;37186;51.394;5.454;2024-01-10T11:10:46;-0.20;74.50
26821;DHT22;37186;51.394;5.454;2024-01-10T11:17:44;-0.10;74.50
26821;DHT22;37186;51.394;5.454;2024-01-10T11:24:22;-0.10;74.50
26821;DHT22;37186;51.394;5.454;2024-01-10T11:27:23;0.00;74.60
26821;DHT22;37186;51.394;5.454;2024-01-10T11:30:51;0.00;74.70
26821;DHT22;37186;51.394;5.454;2024-01-10T11:33:56;0.10;74.70
26821;DHT22;37186;51.394;5.454;2024-01-10T11:37:09;0.10;74.70
26821;DHT22;37186;51.394;5.454;2024-01-10T11:40:12;0.20;74.70
26821;DHT22;37186;51.394;5.454;2024-01-10T11:43:13;0.20;74.70
26821;DHT22;37186;51.394;5.454;2024-01-10T11:46:14;0.30;74.80
26821;DHT22;37186;51.394;5.454;2024-01-10T11:49:17;0.30;74.70
26821;DHT22;37186;51.394;5.454;2024-01-10T11:52:18;0.40;74.80
26821;DHT22;37186;51.394;5.454;2024-01-10T11:55:46;0.40;74.90
26821;DHT22;37186;51.394;5.454;2024-01-10T11:59:05;0.50;74.90
26821;DHT22;37186;51.394;5.454;2024-01-10T12:02:08;0.60;75.00
26821;DHT22;37186;51.394;5.454;2024-01-10T12:05:09;0.60;75.00
26821;DHT22;37186;51.394;5.454;2024-01-10T12:08:10;0.70;75.10
26821;DHT22;37186;51.394;5.454;2024-01-10T12:11:11;0.70;75.20
26821;DHT22;37186;51.394;5.454;2024-01-10T12:14:11;0.80;75.30
26821;DHT22;37186;51.394;5.454;2024-01-10T12:17:13;0.80;75.20
26821;DHT22;37186;51.394;5.454;2024-01-10T12:20:15;0.90;75.20
26821;DHT22;37186;51.394;5.454;2024-01-10T12:23:15;1.00;75.20
26821;DHT22;37186;51.394;5.454;2024-01-10T12:26:18;1.00;75.20
26821;DHT22;37186;51.394;5.454;2024-01-10T12:29:19;1.10;75.20
26821;DHT22;37186;51.394;5.454;2024-01-10T12:32:22;1.10;75.20
26821;DHT22;37186;51.394;5.454;2024-01-10T12:35:23;1.20;75.40
26821;DHT22;37186;51.394;5.454;2024-01-10T12:38:24;1.30;75.40
26821;DHT22;37186;51.394;5.454;2024-01-10T12:41:26;1.30;75.20
26821;DHT22;37186;51.394;5.454;2024-01-10T12:44:33;1.40;75.40
26821;DHT22;37186;51.394;5.454;2024-01-10T12:47:34;1.50;75.50
26821;DHT22;37186;51.394;5.454;2024-01-10T12:50:35;1.60;75.40
26821;DHT22;37186;51.394;5.454;2024-01-10T12:53:37;1.60;75.40
26821;DHT22;37186;51.394;5.454;2024-01-10T12:56:37;1.70;75.40
26821;DHT22;37186;51.394;5.454;2024-01-10T12:59:38;1.80;75.50
26821;DHT22;37186;51.394;5.454;2024-01-10T13:02:39;1.90;75.60
26821;DHT22;37186;51.394;5.454;2024-01-10T13:05:40;1.90;75.50
26821;DHT22;37186;51.394;5.454;2024-01-10T13:08:41;2.00;75.60
26821;DHT22;37186;51.394;5.454;2024-01-10T13:11:42;2.10;75.50
26821;DHT22;37186;51.394;5.454;2024-01-10T13:14:43;2.20;75.70
26821;DHT22;37186;51.394;5.454;2024-01-10T13:17:44;2.30;75.70
26821;DHT22;37186;51.394;5.454;2024-01-10T13:20:44;2.40;75.80
26821;DHT22;37186;51.394;5.454;2024-01-10T13:23:45;2.50;75.70
26821;DHT22;37186;51.394;5.454;2024-01-10T13:26:46;2.50;75.20
26821;DHT22;37186;51.394;5.454;2024-01-10T13:29:48;2.60;75.70
26821;DHT22;37186;51.394;5.454;2024-01-10T13:32:49;2.70;75.50
26821;DHT22;37186;51.394;5.454;2024-01-10T13:35:50;2.80;76.10
26821;DHT22;37186;51.394;5.454;2024-01-10T13:38:50;2.80;75.90
26821;DHT22;37186;51.394;5.454;2024-01-10T13:41:51;2.90;75.70
26821;DHT22;37186;51.394;5.454;2024-01-10T13:44:52;3.00;75.70
26821;DHT22;37186;51.394;5.454;2024-01-10T13:47:52;3.10;75.80
26821;DHT22;37186;51.394;5.454;2024-01-10T13:50:53;3.20;75.80
26821;DHT22;37186;51.394;5.454;2024-01-10T13:53:53;3.20;75.50
26821;DHT22;37186;51.394;5.454;2024-01-10T13:56:54;3.30;75.40
26821;DHT22;37186;51.394;5.454;2024-01-10T13:59:54;3.40;75.20
26821;DHT22;37186;51.394;5.454;2024-01-10T14:02:57;3.40;75.20
26821;DHT22;37186;51.394;5.454;2024-01-10T14:06:01;3.40;75.40
26821;DHT22;37186;51.394;5.454;2024-01-10T14:09:01;3.50;75.40
26821;DHT22;37186;51.394;5.454;2024-01-10T14:12:02;3.50;75.10
26821;DHT22;37186;51.394;5.454;2024-01-10T14:15:03;3.50;75.20
26821;DHT22;37186;51.394;5.454;2024-01-10T14:18:04;3.50;75.10
26821;DHT22;37186;51.394;5.454;2024-01-10T14:21:05;3.50;74.80
26821;DHT22;37186;51.394;5.454;2024-01-10T14:24:05;3.50;74.30
26821;DHT22;37186;51.394;5.454;2024-01-10T14:27:07;3.40;74.20
26821;DHT22;37186;51.394;5.454;2024-01-10T14:30:08;3.40;74.40
26821;DHT22;37186;51.394;5.454;2024-01-10T14:33:09;3.40;74.20
26821;DHT22;37186;51.394;5.454;2024-01-10T14:36:10;3.40;74.40
26821;DHT22;37186;51.394;5.454;2024-01-10T14:39:10;3.30;74.30
26821;DHT22;37186;51.394;5.454;2024-01-10T14:42:15;3.30;74.30
26821;DHT22;37186;51.394;5.454;2024-01-10T14:45:15;3.30;74.30
26821;DHT22;37186;51.394;5.454;2024-01-10T14:48:16;3.20;73.90
26821;DHT22;37186;51.394;5.454;2024-01-10T14:51:16;3.20;73.90
26821;DHT22;37186;51.394;5.454;2024-01-10T14:54:17;3.10;74.20
26821;DHT22;37186;51.394;5.454;2024-01-10T14:57:18;3.10;74.20
26821;DHT22;37186;51.394;5.454;2024-01-10T15:00:19;3.00;74.30
26821;DHT22;37186;51.394;5.454;2024-01-10T15:03:20;3.00;74.20
26821;DHT22;37186;51.394;5.454;2024-01-10T15:06:21;2.90;74.10
26821;DHT22;37186;51.394;5.454;2024-01-10T15:09:22;2.90;74.20
26821;DHT22;37186;51.394;5.454;2024-01-10T15:12:23;2.80;73.60
26821;DHT22;37186;51.394;5.454;2024-01-10T15:15:23;2.70;73.70
26821;DHT22;37186;51.394;5.454;2024-01-10T15:18:24;2.80;74.10
26821;DHT22;37186;51.394;5.454;2024-01-10T15:21:24;2.70;74.00
26821;DHT22;37186;51.394;5.454;2024-01-10T15:24:25;2.60;74.00
26821;DHT22;37186;51.394;5.454;2024-01-10T15:27:26;2.60;74.00
26821;DHT22;37186;51.394;5.454;2024-01-10T15:30:28;2.60;74.00
26821;DHT22;37186;51.394;5.454;2024-01-10T15:33:28;2.60;73.80
26821;DHT22;37186;51.394;5.454;2024-01-10T15:36:29;2.50;73.80
26821;DHT22;37186;51.394;5.454;2024-01-10T15:39:30;2.50;74.10
26821;DHT22;37186;51.394;5.454;2024-01-10T15:42:30;2.50;74.00
26821;DHT22;37186;51.394;5.454;2024-01-10T15:45:31;2.50;74.10
26821;DHT22;37186;51.394;5.454;2024-01-10T15:48:32;2.50;74.00
26821;DHT22;37186;51.394;5.454;2024-01-10T15:51:33;2.40;74.00
26821;DHT22;37186;51.394;5.454;2024-01-10T15:54:34;2.40;74.10
26821;DHT22;37186;51.394;5.454;2024-01-10T15:57:38;2.40;74.10
26821;DHT22;37186;51.394;5.454;2024-01-10T16:00:39;2.30;73.90
26821;DHT22;37186;51.394;5.454;2024-01-10T16:03:40;2.30;74.00
26821;DHT22;37186;51.394;5.454;2024-01-10T16:06:40;2.30;74.10
26821;DHT22;37186;51.394;5.454;2024-01-10T16:09:41;2.30;74.00
26821;DHT22;37186;51.394;5.454;2024-01-10T16:12:41;2.30;74.00
26821;DHT22;37186;51.394;5.454;2024-01-10T16:15:42;2.20;74.00
26821;DHT22;37186;51.394;5.454;2024-01-10T16:18:43;2.20;74.00
26821;DHT22;37186;51.394;5.454;2024-01-10T16:21:43;2.20;74.10
26821;DHT22;37186;51.394;5.454;2024-01-10T16:24:44;2.20;74.10
26821;DHT22;37186;51.394;5.454;2024-01-10T16:27:45;2.10;74.10
26821;DHT22;37186;51.394;5.454;2024-01-10T16:30:45;2.20;74.20
26821;DHT22;37186;51.394;5.454;2024-01-10T16:33:46;2.10;74.10
26821;DHT22;37186;51.394;5.454;2024-01-10T16:36:46;2.10;74.20
26821;DHT22;37186;51.394;5.454;2024-01-10T16:39:47;2.10;74.10
26821;DHT22;37186;51.394;5.454;2024-01-10T16:42:48;2.00;74.00
26821;DHT22;37186;51.394;5.454;2024-01-10T16:45:48;2.00;74.00
26821;DHT22;37186;51.394;5.454;2024-01-10T16:48:49;2.00;74.10
26821;DHT22;37186;51.394;5.454;2024-01-10T16:51:49;2.00;74.10
26821;DHT22;37186;51.394;5.454;2024-01-10T16:54:50;2.00;74.20
26821;DHT22;37186;51.394;5.454;2024-01-10T16:57:50;1.90;74.10
26821;DHT22;37186;51.394;5.454;2024-01-10T17:00:51;1.90;74.10
26821;DHT22;37186;51.394;5.454;2024-01-10T17:03:51;1.90;74.00
26821;DHT22;37186;51.394;5.454;2024-01-10T17:06:54;1.90;74.00
26821;DHT22;37186;51.394;5.454;2024-01-10T17:09:54;1.90;74.10
26821;DHT22;37186;51.394;5.454;2024-01-10T17:12:55;1.80;74.80
26821;DHT22;37186;51.394;5.454;2024-01-10T17:15:55;1.80;74.00
26821;DHT22;37186;51.394;5.454;2024-01-10T17:18:56;1.80;74.00
26821;DHT22;37186;51.394;5.454;2024-01-10T17:21:56;1.80;74.00
26821;DHT22;37186;51.394;5.454;2024-01-10T17:24:57;1.80;74.10
26821;DHT22;37186;51.394;5.454;2024-01-10T17:27:57;1.80;74.10
26821;DHT22;37186;51.394;5.454;2024-01-10T17:30:58;1.80;74.10
26821;DHT22;37186;51.394;5.454;2024-01-10T17:33:59;1.80;74.10
26821;DHT22;37186;51.394;5.454;2024-01-10T17:37:00;1.80;74.10
26821;DHT22;37186;51.394;5.454;2024-01-10T17:40:03;1.70;74.10
26821;DHT22;37186;51.394;5.454;2024-01-10T17:43:05;1.70;74.00
26821;DHT22;37186;51.394;5.454;2024-01-10T17:46:05;1.70;74.00
26821;DHT22;37186;51.394;5.454;2024-01-10T17:49:06;1.70;74.10
26821;DHT22;37186;51.394;5.454;2024-01-10T17:52:08;1.60;74.00
26821;DHT22;37186;51.394;5.454;2024-01-10T17:55:08;1.60;74.00
26821;DHT22;37186;51.394;5.454;2024-01-10T17:58:09;1.60;74.00
26821;DHT22;37186;51.394;5.454;2024-01-10T18:01:09;1.60;74.00
26821;DHT22;37186;51.394;5.454;2024-01-10T18:04:10;1.60;74.00
26821;DHT22;37186;51.394;5.454;2024-01-10T18:07:12;1.50;74.00
26821;DHT22;37186;51.394;5.454;2024-01-10T18:10:12;1.50;74.00
26821;DHT22;37186;51.394;5.454;2024-01-10T18:13:13;1.50;74.00
26821;DHT22;37186;51.394;5.454;2024-01-10T18:16:13;1.50;74.00
26821;DHT22;37186;51.394;5.454;2024-01-10T18:19:14;1.40;73.90
26821;DHT22;37186;51.394;5.454;2024-01-10T18:22:15;1.40;74.00
26821;DHT22;37186;51.394;5.454;2024-01-10T18:25:15;1.40;73.90
26821;DHT22;37186;51.394;5.454;2024-01-10T18:28:16;1.40;73.90
26821;DHT22;37186;51.394;5.454;2024-01-10T18:31:16;1.40;74.00
26821;DHT22;37186;51.394;5.454;2024-01-10T18:34:17;1.30;73.90
26821;DHT22;37186;51.394;5.454;2024-01-10T18:37:17;1.30;74.00
26821;DHT22;37186;51.394;5.454;2024-01-10T18:40:18;1.30;73.90
26821;DHT22;37186;51.394;5.454;2024-01-10T18:43:20;1.30;74.00
26821;DHT22;37186;51.394;5.454;2024-01-10T18:46:20;1.30;74.00
26821;DHT22;37186;51.394;5.454;2024-01-10T18:49:21;1.30;74.00
26821;DHT22;37186;51.394;5.454;2024-01-10T18:52:21;1.20;74.00
26821;DHT22;37186;51.394;5.454;2024-01-10T18:55:22;1.20;73.90
26821;DHT22;37186;51.394;5.454;2024-01-10T18:58:22;1.20;73.90
26821;DHT22;37186;51.394;5.454;2024-01-10T19:01:23;1.20;73.90
26821;DHT22;37186;51.394;5.454;2024-01-10T19:04:24;1.10;73.90
26821;DHT22;37186;51.394;5.454;2024-01-10T19:07:25;1.10;73.80
26821;DHT22;37186;51.394;5.454;2024-01-10T19:10:25;1.10;73.90
26821;DHT22;37186;51.394;5.454;2024-01-10T19:13:26;1.10;73.90
26821;DHT22;37186;51.394;5.454;2024-01-10T19:16:26;1.10;73.90
26821;DHT22;37186;51.394;5.454;2024-01-10T19:19:27;1.00;73.80